sensor_id;sensor_type;location;lat;lon;timestamp;temperature;humidity
18611;DHT22;9435;52.122;5.502;2023-07-24T00:01:37;18.40;99.90
18611;DHT22;9435;52.122;5.502;2023-07-24T00:04:04;18.40;99.90
18611;DHT22;9435;52.122;5.502;2023-07-24T00:06:31;18.40;99.90
18611;DHT22;9435;52.122;5.502;2023-07-24T00:08:59;18.40;99.90
18611;DHT22;9435;52.122;5.502;2023-07-24T00:11:26;18.40;99.90
18611;DHT22;9435;52.122;5.502;2023-07-24T00:13:54;18.30;99.90
18611;DHT22;9435;52.122;5.502;2023-07-24T00:16:21;18.30;99.90
18611;DHT22;9435;52.122;5.502;2023-07-24T00:18:48;18.30;99.90
18611;DHT22;9435;52.122;5.502;2023-07-24T00:21:15;18.30;99.90
18611;DHT22;9435;52.122;5.502;2023-07-24T00:23:42;18.30;99.90
18611;DHT22;9435;52.122;5.502;2023-07-24T00:26:10;18.20;99.90
18611;DHT22;9435;52.122;5.502;2023-07-24T00:28:38;18.20;99.90
18611;DHT22;9435;52.122;5.502;2023-07-24T00:31:05;18.10;99.90
18611;DHT22;9435;52.122;5.502;2023-07-24T00:33:32;18.20;99.90
18611;DHT22;9435;52.122;5.502;2023-07-24T00:35:59;18.10;99.90
18611;DHT22;9435;52.122;5.502;2023-07-24T00:38:26;18.10;99.90
18611;DHT22;9435;52.122;5.502;2023-07-24T00:40:53;18.10;99.90
18611;DHT22;9435;52.122;5.502;2023-07-24T00:43:21;18.10;99.90
18611;DHT22;9435;52.122;5.502;2023-07-24T00:45:48;18.00;99.90
18611;DHT22;9435;52.122;5.502;2023-07-24T00:48:15;18.00;99.90
18611;DHT22;9435;52.122;5.502;2023-07-24T00:50:43;18.00;99.90
18611;DHT22;9435;52.122;5.502;2023-07-24T00:53:11;18.00;99.90
18611;DHT22;9435;52.122;5.502;2023-07-24T00:55:39;18.00;99.90
18611;DHT22;9435;52.122;5.502;2023-07-24T00:58:07;18.00;99.90
18611;DHT22;9435;52.122;5.502;2023-07-24T01:00:36;18.00;99.90
18611;DHT22;9435;52.122;5.502;2023-07-24T01:03:04;18.00;99.90
18611;DHT22;9435;52.122;5.502;2023-07-24T01:05:31;17.90;99.90
18611;DHT22;9435;52.122;5.502;2023-07-24T01:07:58;18.00;99.90
18611;DHT22;9435;52.122;5.502;2023-07-24T01:10:25;17.90;99.90
18611;DHT22;9435;52.122;5.502;2023-07-24T01:12:57;17.90;99.90
18611;DHT22;9435;52.122;5.502;2023-07-24T01:15:30;18.00;99.90
18611;DHT22;9435;52.122;5.502;2023-07-24T01:18:03;18.00;99.90
18611;DHT22;9435;52.122;5.502;2023-07-24T01:20:35;18.00;99.90
18611;DHT22;9435;52.122;5.502;2023-07-24T01:23:15;18.00;99.90
18611;DHT22;9435;52.122;5.502;2023-07-24T01:25:54;18.00;99.90
18611;DHT22;9435;52.122;5.502;2023-07-24T01:28:21;17.90;99.90
18611;DHT22;9435;52.122;5.502;2023-07-24T01:30:48;18.00;99.90
18611;DHT22;9435;52.122;5.502;2023-07-24T01:33:15;17.90;99.90
18611;DHT22;9435;52.122;5.502;2023-07-24T01:35:43;18.00;99.90
18611;DHT22;9435;52.122;5.502;2023-07-24T01:38:12;18.00;99.90
18611;DHT22;9435;52.122;5.502;2023-07-24T01:40:40;17.90;99.90
18611;DHT22;9435;52.122;5.502;2023-07-24T01:43:09;17.90;99.90
18611;DHT22;9435;52.122;5.502;2023-07-24T01:45:36;18.00;99.90
18611;DHT22;9435;52.122;5.502;2023-07-24T01:48:04;17.90;99.90
18611;DHT22;9435;52.122;5.502;2023-07-24T01:50:31;17.90;99.90
18611;DHT22;9435;52.122;5.502;2023-07-24T01:52:58;17.90;99.90
18611;DHT22;9435;52.122;5.502;2023-07-24T01:55:25;18.00;99.90
18611;DHT22;9435;52.122;5.502;2023-07-24T01:57:53;18.00;99.90
18611;DHT22;9435;52.122;5.502;2023-07-24T02:00:22;17.90;99.90
18611;DHT22;9435;52.122;5.502;2023-07-24T02:02:49;18.00;99.90
18611;DHT22;9435;52.122;5.502;2023-07-24T02:05:16;17.90;99.90
18611;DHT22;9435;52.122;5.502;2023-07-24T02:07:43;17.90;99.90
18611;DHT22;9435;52.122;5.502;2023-07-24T02:10:10;17.90;99.90
18611;DHT22;9435;52.122;5.502;2023-07-24T02:12:37;17.90;99.90
18611;DHT22;9435;52.122;5.502;2023-07-24T02:15:05;17.90;99.90
18611;DHT22;9435;52.122;5.502;2023-07-24T02:17:33;17.90;99.90
18611;DHT22;9435;52.122;5.502;2023-07-24T02:20:01;17.90;99.90
18611;DHT22;9435;52.122;5.502;2023-07-24T02:22:28;17.90;99.90
18611;DHT22;9435;52.122;5.502;2023-07-24T02:24:55;17.80;99.90
18611;DHT22;9435;52.122;5.502;2023-07-24T02:27:26;17.80;99.90
18611;DHT22;9435;52.122;5.502;2023-07-24T02:29:54;17.80;99.90
18611;DHT22;9435;52.122;5.502;2023-07-24T02:32:21;17.80;99.90
18611;DHT22;9435;52.122;5.502;2023-07-24T02:34:50;17.80;99.90
18611;DHT22;9435;52.122;5.502;2023-07-24T02:37:17;17.80;99.90
18611;DHT22;9435;52.122;5.502;2023-07-24T02:39:45;17.80;99.90
18611;DHT22;9435;52.122;5.502;2023-07-24T02:42:12;17.80;99.90
18611;DHT22;9435;52.122;5.502;2023-07-24T02:44:39;17.80;99.90
18611;DHT22;9435;52.122;5.502;2023-07-24T02:47:06;17.70;99.90
18611;DHT22;9435;52.122;5.502;2023-07-24T02:49:33;17.80;99.90
18611;DHT22;9435;52.122;5.502;2023-07-24T02:52:01;17.80;99.90
18611;DHT22;9435;52.122;5.502;2023-07-24T02:54:28;17.80;99.90
18611;DHT22;9435;52.122;5.502;2023-07-24T02:56:55;17.80;99.90
18611;DHT22;9435;52.122;5.502;2023-07-24T02:59:23;17.80;99.90
18611;DHT22;9435;52.122;5.502;2023-07-24T03:01:50;17.80;99.90
18611;DHT22;9435;52.122;5.502;2023-07-24T03:04:17;17.80;99.90
18611;DHT22;9435;52.122;5.502;2023-07-24T03:06:45;17.80;99.90
18611;DHT22;9435;52.122;5.502;2023-07-24T03:09:13;17.90;99.90
18611;DHT22;9435;52.122;5.502;2023-07-24T03:11:40;17.80;99.90
18611;DHT22;9435;52.122;5.502;2023-07-24T03:14:08;17.90;99.90
18611;DHT22;9435;52.122;5.502;2023-07-24T03:16:35;17.80;99.90
18611;DHT22;9435;52.122;5.502;2023-07-24T03:19:02;17.90;99.90
18611;DHT22;9435;52.122;5.502;2023-07-24T03:21:29;17.80;99.90
18611;DHT22;9435;52.122;5.502;2023-07-24T03:23:56;17.80;99.90
18611;DHT22;9435;52.122;5.502;2023-07-24T03:26:24;17.80;99.90
18611;DHT22;9435;52.122;5.502;2023-07-24T03:28:51;17.80;99.90
18611;DHT22;9435;52.122;5.502;2023-07-24T03:31:18;17.80;99.90
18611;DHT22;9435;52.122;5.502;2023-07-24T03:33:45;17.80;99.90
18611;DHT22;9435;52.122;5.502;2023-07-24T03:36:12;17.80;99.90
18611;DHT22;9435;52.122;5.502;2023-07-24T03:38:39;17.80;99.90
18611;DHT22;9435;52.122;5.502;2023-07-24T03:41:06;17.70;99.90
18611;DHT22;9435;52.122;5.502;2023-07-24T03:43:35;17.70;99.90
18611;DHT22;9435;52.122;5.502;2023-07-24T03:46:02;17.70;99.90
18611;DHT22;9435;52.122;5.502;2023-07-24T03:48:29;17.70;99.90
18611;DHT22;9435;52.122;5.502;2023-07-24T03:50:58;17.70;99.90
18611;DHT22;9435;52.122;5.502;2023-07-24T03:53:26;17.70;99.90
18611;DHT22;9435;52.122;5.502;2023-07-24T03:55:53;17.70;99.90
18611;DHT22;9435;52.122;5.502;2023-07-24T03:58:20;17.70;99.90
18611;DHT22;9435;52.122;5.502;2023-07-24T04:00:49;17.70;99.90
18611;DHT22;9435;52.122;5.502;2023-07-24T04:03:16;17.60;99.90
18611;DHT22;9435;52.122;5.502;2023-07-24T04:05:43;17.60;99.90
18611;DHT22;9435;52.122;5.502;2023-07-24T04:08:11;17.60;99.90
18611;DHT22;9435;52.122;5.502;2023-07-24T04:10:38;17.60;99.90
18611;DHT22;9435;52.122;5.502;2023-07-24T04:13:05;17.60;99.90
18611;DHT22;9435;52.122;5.502;2023-07-24T04:15:32;17.60;99.90
18611;DHT22;9435;52.122;5.502;2023-07-24T04:18:01;17.60;99.90
18611;DHT22;9435;52.122;5.502;2023-07-24T04:20:28;17.50;99.90
18611;DHT22;9435;52.122;5.502;2023-07-24T04:22:55;17.60;99.90
18611;DHT22;9435;52.122;5.502;2023-07-24T04:25:22;17.60;99.90
18611;DHT22;9435;52.122;5.502;2023-07-24T04:27:49;17.60;99.90
18611;DHT22;9435;52.122;5.502;2023-07-24T04:30:16;17.60;99.90
18611;DHT22;9435;52.122;5.502;2023-07-24T04:32:43;17.60;99.90
18611;DHT22;9435;52.122;5.502;2023-07-24T04:35:13;17.60;99.90
18611;DHT22;9435;52.122;5.502;2023-07-24T04:37:40;17.50;99.90
18611;DHT22;9435;52.122;5.502;2023-07-24T04:40:08;17.50;99.90
18611;DHT22;9435;52.122;5.502;2023-07-24T04:42:36;17.50;99.90
18611;DHT22;9435;52.122;5.502;2023-07-24T04:45:03;17.50;99.90
18611;DHT22;9435;52.122;5.502;2023-07-24T04:47:30;17.50;99.90
18611;DHT22;9435;52.122;5.502;2023-07-24T04:49:58;17.50;99.90
18611;DHT22;9435;52.122;5.502;2023-07-24T04:52:26;17.50;99.90
18611;DHT22;9435;52.122;5.502;2023-07-24T04:54:54;17.40;99.90
18611;DHT22;9435;52.122;5.502;2023-07-24T04:57:21;17.50;99.90
18611;DHT22;9435;52.122;5.502;2023-07-24T04:59:48;17.50;99.90
18611;DHT22;9435;52.122;5.502;2023-07-24T05:02:15;17.40;99.90
18611;DHT22;9435;52.122;5.502;2023-07-24T05:04:42;17.40;99.90
18611;DHT22;9435;52.122;5.502;2023-07-24T05:07:09;17.40;99.90
18611;DHT22;9435;52.122;5.502;2023-07-24T05:09:37;17.40;99.90
18611;DHT22;9435;52.122;5.502;2023-07-24T05:12:07;17.40;99.90
18611;DHT22;9435;52.122;5.502;2023-07-24T05:14:34;17.40;99.90
18611;DHT22;9435;52.122;5.502;2023-07-24T05:17:01;17.40;99.90
18611;DHT22;9435;52.122;5.502;2023-07-24T05:19:28;17.40;99.90
18611;DHT22;9435;52.122;5.502;2023-07-24T05:21:57;17.40;99.90
18611;DHT22;9435;52.122;5.502;2023-07-24T05:24:24;17.50;99.90
18611;DHT22;9435;52.122;5.502;2023-07-24T05:26:53;17.50;99.90
18611;DHT22;9435;52.122;5.502;2023-07-24T05:29:20;17.60;99.90
18611;DHT22;9435;52.122;5.502;2023-07-24T05:31:47;17.50;99.90
18611;DHT22;9435;52.122;5.502;2023-07-24T05:34:14;17.60;99.90
18611;DHT22;9435;52.122;5.502;2023-07-24T05:36:41;17.60;99.90
18611;DHT22;9435;52.122;5.502;2023-07-24T05:39:08;17.60;99.90
18611;DHT22;9435;52.122;5.502;2023-07-24T05:41:35;17.70;99.90
18611;DHT22;9435;52.122;5.502;2023-07-24T05:44:04;17.70;99.90
18611;DHT22;9435;52.122;5.502;2023-07-24T05:46:31;17.70;99.90
18611;DHT22;9435;52.122;5.502;2023-07-24T05:48:58;17.70;99.90
18611;DHT22;9435;52.122;5.502;2023-07-24T05:51:28;17.70;99.90
18611;DHT22;9435;52.122;5.502;2023-07-24T05:53:55;17.70;99.90
18611;DHT22;9435;52.122;5.502;2023-07-24T05:56:22;17.70;99.90
18611;DHT22;9435;52.122;5.502;2023-07-24T05:58:49;17.80;99.90
18611;DHT22;9435;52.122;5.502;2023-07-24T06:01:18;17.80;99.90
18611;DHT22;9435;52.122;5.502;2023-07-24T06:03:45;17.80;99.90
18611;DHT22;9435;52.122;5.502;2023-07-24T06:06:12;17.80;99.90
18611;DHT22;9435;52.122;5.502;2023-07-24T06:08:40;17.90;99.90
18611;DHT22;9435;52.122;5.502;2023-07-24T06:11:07;17.90;99.90
18611;DHT22;9435;52.122;5.502;2023-07-24T06:13:34;17.90;99.90
18611;DHT22;9435;52.122;5.502;2023-07-24T06:16:02;18.00;99.90
18611;DHT22;9435;52.122;5.502;2023-07-24T06:18:30;18.00;99.90
18611;DHT22;9435;52.122;5.502;2023-07-24T06:20:57;18.10;99.90
18611;DHT22;9435;52.122;5.502;2023-07-24T06:23:24;18.10;99.90
18611;DHT22;9435;52.122;5.502;2023-07-24T06:25:51;18.10;99.90
18611;DHT22;9435;52.122;5.502;2023-07-24T06:28:19;18.20;99.90
18611;DHT22;9435;52.122;5.502;2023-07-24T06:30:46;18.40;99.90
18611;DHT22;9435;52.122;5.502;2023-07-24T06:33:13;18.60;99.90
18611;DHT22;9435;52.122;5.502;2023-07-24T06:35:41;18.80;99.90
18611;DHT22;9435;52.122;5.502;2023-07-24T06:38:08;18.90;99.90
18611;DHT22;9435;52.122;5.502;2023-07-24T06:40:35;18.90;99.90
18611;DHT22;9435;52.122;5.502;2023-07-24T06:43:02;18.90;99.90
18611;DHT22;9435;52.122;5.502;2023-07-24T06:45:30;18.90;99.90
18611;DHT22;9435;52.122;5.502;2023-07-24T06:47:57;18.90;99.90
18611;DHT22;9435;52.122;5.502;2023-07-24T06:50:24;18.80;99.90
18611;DHT22;9435;52.122;5.502;2023-07-24T06:52:52;19.00;99.90
18611;DHT22;9435;52.122;5.502;2023-07-24T06:55:19;19.40;99.90
18611;DHT22;9435;52.122;5.502;2023-07-24T06:57:46;19.70;99.90
18611;DHT22;9435;52.122;5.502;2023-07-24T07:00:14;19.90;99.90
18611;DHT22;9435;52.122;5.502;2023-07-24T07:02:41;20.10;99.90
18611;DHT22;9435;52.122;5.502;2023-07-24T07:05:08;20.00;99.90
18611;DHT22;9435;52.122;5.502;2023-07-24T07:07:35;20.20;99.90
18611;DHT22;9435;52.122;5.502;2023-07-24T07:10:05;20.10;99.90
18611;DHT22;9435;52.122;5.502;2023-07-24T07:12:32;20.10;99.90
18611;DHT22;9435;52.122;5.502;2023-07-24T07:14:59;20.10;99.90
18611;DHT22;9435;52.122;5.502;2023-07-24T07:17:26;20.10;99.90
18611;DHT22;9435;52.122;5.502;2023-07-24T07:19:53;20.00;99.90
18611;DHT22;9435;52.122;5.502;2023-07-24T07:22:22;19.90;99.90
18611;DHT22;9435;52.122;5.502;2023-07-24T07:24:49;19.90;99.90
18611;DHT22;9435;52.122;5.502;2023-07-24T07:27:17;19.80;99.90
18611;DHT22;9435;52.122;5.502;2023-07-24T07:29:44;19.80;99.90
18611;DHT22;9435;52.122;5.502;2023-07-24T07:32:11;19.80;99.90
18611;DHT22;9435;52.122;5.502;2023-07-24T07:34:38;19.70;99.90
18611;DHT22;9435;52.122;5.502;2023-07-24T07:37:06;19.60;99.90
18611;DHT22;9435;52.122;5.502;2023-07-24T07:39:33;19.50;99.90
18611;DHT22;9435;52.122;5.502;2023-07-24T07:42:00;19.50;99.90
18611;DHT22;9435;52.122;5.502;2023-07-24T07:44:28;19.60;99.90
18611;DHT22;9435;52.122;5.502;2023-07-24T07:46:55;19.60;99.90
18611;DHT22;9435;52.122;5.502;2023-07-24T07:49:22;19.70;99.90
18611;DHT22;9435;52.122;5.502;2023-07-24T07:51:49;19.70;99.90
18611;DHT22;9435;52.122;5.502;2023-07-24T07:54:16;19.70;99.90
18611;DHT22;9435;52.122;5.502;2023-07-24T07:56:44;19.70;99.90
18611;DHT22;9435;52.122;5.502;2023-07-24T07:59:11;19.60;99.90
18611;DHT22;9435;52.122;5.502;2023-07-24T08:01:39;19.70;99.90
18611;DHT22;9435;52.122;5.502;2023-07-24T08:04:07;19.70;99.90
18611;DHT22;9435;52.122;5.502;2023-07-24T08:06:34;19.70;99.90
18611;DHT22;9435;52.122;5.502;2023-07-24T08:09:01;19.80;99.90
18611;DHT22;9435;52.122;5.502;2023-07-24T08:11:28;19.90;99.90
18611;DHT22;9435;52.122;5.502;2023-07-24T08:13:55;20.10;99.90
18611;DHT22;9435;52.122;5.502;2023-07-24T08:16:22;20.30;99.90
18611;DHT22;9435;52.122;5.502;2023-07-24T08:18:51;20.50;99.90
18611;DHT22;9435;52.122;5.502;2023-07-24T08:21:18;20.60;99.90
18611;DHT22;9435;52.122;5.502;2023-07-24T08:23:45;21.10;99.90
18611;DHT22;9435;52.122;5.502;2023-07-24T08:26:12;21.50;99.90
18611;DHT22;9435;52.122;5.502;2023-07-24T08:28:39;21.80;99.90
18611;DHT22;9435;52.122;5.502;2023-07-24T08:31:08;22.10;99.90
18611;DHT22;9435;52.122;5.502;2023-07-24T08:33:35;22.30;99.90
18611;DHT22;9435;52.122;5.502;2023-07-24T08:36:05;22.20;99.90
18611;DHT22;9435;52.122;5.502;2023-07-24T08:38:32;22.00;99.90
18611;DHT22;9435;52.122;5.502;2023-07-24T08:41:04;22.00;99.90
18611;DHT22;9435;52.122;5.502;2023-07-24T08:43:31;22.00;99.90
18611;DHT22;9435;52.122;5.502;2023-07-24T08:45:59;22.10;99.90
18611;DHT22;9435;52.122;5.502;2023-07-24T08:48:29;22.10;99.90
18611;DHT22;9435;52.122;5.502;2023-07-24T08:50:57;22.00;99.90
18611;DHT22;9435;52.122;5.502;2023-07-24T08:53:28;22.00;99.90
18611;DHT22;9435;52.122;5.502;2023-07-24T08:55:56;21.80;99.90
18611;DHT22;9435;52.122;5.502;2023-07-24T08:58:24;21.70;99.90
18611;DHT22;9435;52.122;5.502;2023-07-24T09:00:51;21.50;99.90
18611;DHT22;9435;52.122;5.502;2023-07-24T09:03:18;21.50;99.90
18611;DHT22;9435;52.122;5.502;2023-07-24T09:05:45;21.50;99.90
18611;DHT22;9435;52.122;5.502;2023-07-24T09:08:13;21.40;99.90
18611;DHT22;9435;52.122;5.502;2023-07-24T09:10:41;21.40;99.90
18611;DHT22;9435;52.122;5.502;2023-07-24T09:13:12;21.40;99.90
18611;DHT22;9435;52.122;5.502;2023-07-24T09:15:42;21.40;99.90
18611;DHT22;9435;52.122;5.502;2023-07-24T09:18:10;21.60;99.90
18611;DHT22;9435;52.122;5.502;2023-07-24T09:20:42;22.00;99.90
18611;DHT22;9435;52.122;5.502;2023-07-24T09:23:10;22.60;99.90
18611;DHT22;9435;52.122;5.502;2023-07-24T09:25:38;22.90;99.90
18611;DHT22;9435;52.122;5.502;2023-07-24T09:28:15;22.90;99.90
18611;DHT22;9435;52.122;5.502;2023-07-24T09:30:51;22.90;99.90
18611;DHT22;9435;52.122;5.502;2023-07-24T09:33:18;22.80;99.90
18611;DHT22;9435;52.122;5.502;2023-07-24T09:35:55;22.80;99.90
18611;DHT22;9435;52.122;5.502;2023-07-24T09:38:23;22.90;99.90
18611;DHT22;9435;52.122;5.502;2023-07-24T09:40:52;22.60;99.90
18611;DHT22;9435;52.122;5.502;2023-07-24T09:43:23;22.50;99.90
18611;DHT22;9435;52.122;5.502;2023-07-24T09:45:52;22.40;99.90
18611;DHT22;9435;52.122;5.502;2023-07-24T09:48:21;22.10;99.90
18611;DHT22;9435;52.122;5.502;2023-07-24T09:50:54;21.90;99.90
18611;DHT22;9435;52.122;5.502;2023-07-24T09:53:26;21.70;99.90
18611;DHT22;9435;52.122;5.502;2023-07-24T09:55:57;21.70;99.90
18611;DHT22;9435;52.122;5.502;2023-07-24T09:58:26;21.80;99.90
18611;DHT22;9435;52.122;5.502;2023-07-24T10:00:53;22.10;99.90
18611;DHT22;9435;52.122;5.502;2023-07-24T10:03:22;22.30;99.90
18611;DHT22;9435;52.122;5.502;2023-07-24T10:05:49;22.20;99.90
18611;DHT22;9435;52.122;5.502;2023-07-24T10:08:18;22.30;99.90
18611;DHT22;9435;52.122;5.502;2023-07-24T10:10:46;22.30;99.90
18611;DHT22;9435;52.122;5.502;2023-07-24T10:13:17;22.20;99.90
18611;DHT22;9435;52.122;5.502;2023-07-24T10:15:48;22.10;99.90
18611;DHT22;9435;52.122;5.502;2023-07-24T10:18:16;22.50;99.90
18611;DHT22;9435;52.122;5.502;2023-07-24T10:20:43;22.60;99.90
18611;DHT22;9435;52.122;5.502;2023-07-24T10:23:16;22.80;99.90
18611;DHT22;9435;52.122;5.502;2023-07-24T10:25:45;22.70;99.90
18611;DHT22;9435;52.122;5.502;2023-07-24T10:28:12;22.70;99.90
18611;DHT22;9435;52.122;5.502;2023-07-24T10:30:42;22.80;99.90
18611;DHT22;9435;52.122;5.502;2023-07-24T10:33:13;22.90;99.90
18611;DHT22;9435;52.122;5.502;2023-07-24T10:35:45;22.80;99.90
18611;DHT22;9435;52.122;5.502;2023-07-24T10:38:13;22.70;99.90
18611;DHT22;9435;52.122;5.502;2023-07-24T10:40:42;22.40;99.90
18611;DHT22;9435;52.122;5.502;2023-07-24T10:43:10;22.10;99.90
18611;DHT22;9435;52.122;5.502;2023-07-24T10:45:42;22.10;99.90
18611;DHT22;9435;52.122;5.502;2023-07-24T10:48:11;22.20;99.90
18611;DHT22;9435;52.122;5.502;2023-07-24T10:50:43;22.60;99.90
18611;DHT22;9435;52.122;5.502;2023-07-24T10:53:11;22.70;99.90
18611;DHT22;9435;52.122;5.502;2023-07-24T10:55:38;22.80;99.90
18611;DHT22;9435;52.122;5.502;2023-07-24T10:58:06;22.70;99.90
18611;DHT22;9435;52.122;5.502;2023-07-24T11:00:34;22.70;99.90
18611;DHT22;9435;52.122;5.502;2023-07-24T11:03:01;22.70;99.90
18611;DHT22;9435;52.122;5.502;2023-07-24T11:05:31;22.70;99.90
18611;DHT22;9435;52.122;5.502;2023-07-24T11:07:59;22.70;99.90
18611;DHT22;9435;52.122;5.502;2023-07-24T11:10:26;22.80;99.90
18611;DHT22;9435;52.122;5.502;2023-07-24T11:12:56;22.80;99.90
18611;DHT22;9435;52.122;5.502;2023-07-24T11:15:26;22.90;99.90
18611;DHT22;9435;52.122;5.502;2023-07-24T11:17:53;23.10;99.90
18611;DHT22;9435;52.122;5.502;2023-07-24T11:20:21;23.00;99.90
18611;DHT22;9435;52.122;5.502;2023-07-24T11:22:49;23.00;99.90
18611;DHT22;9435;52.122;5.502;2023-07-24T11:25:16;23.10;99.90
18611;DHT22;9435;52.122;5.502;2023-07-24T11:27:44;23.10;99.90
18611;DHT22;9435;52.122;5.502;2023-07-24T11:30:18;23.70;99.90
18611;DHT22;9435;52.122;5.502;2023-07-24T11:32:46;24.00;99.90
18611;DHT22;9435;52.122;5.502;2023-07-24T11:35:13;23.90;99.90
18611;DHT22;9435;52.122;5.502;2023-07-24T11:37:40;24.10;99.90
18611;DHT22;9435;52.122;5.502;2023-07-24T11:40:10;24.10;99.90
18611;DHT22;9435;52.122;5.502;2023-07-24T11:42:40;24.30;99.90
18611;DHT22;9435;52.122;5.502;2023-07-24T11:45:11;24.80;99.90
18611;DHT22;9435;52.122;5.502;2023-07-24T11:47:45;24.70;99.90
18611;DHT22;9435;52.122;5.502;2023-07-24T11:50:13;24.10;99.90
18611;DHT22;9435;52.122;5.502;2023-07-24T11:52:42;24.60;99.90
18611;DHT22;9435;52.122;5.502;2023-07-24T11:55:12;24.60;99.90
18611;DHT22;9435;52.122;5.502;2023-07-24T11:57:39;24.50;99.90
18611;DHT22;9435;52.122;5.502;2023-07-24T12:00:18;24.10;99.90
18611;DHT22;9435;52.122;5.502;2023-07-24T12:02:45;24.20;99.90
18611;DHT22;9435;52.122;5.502;2023-07-24T12:05:12;24.20;99.90
18611;DHT22;9435;52.122;5.502;2023-07-24T12:07:39;24.00;99.90
18611;DHT22;9435;52.122;5.502;2023-07-24T12:10:11;23.80;99.90
18611;DHT22;9435;52.122;5.502;2023-07-24T12:12:39;23.40;99.90
18611;DHT22;9435;52.122;5.502;2023-07-24T12:15:08;23.10;99.90
18611;DHT22;9435;52.122;5.502;2023-07-24T12:17:35;23.00;99.90
18611;DHT22;9435;52.122;5.502;2023-07-24T12:20:03;22.90;99.90
18611;DHT22;9435;52.122;5.502;2023-07-24T12:22:31;22.80;99.90
18611;DHT22;9435;52.122;5.502;2023-07-24T12:24:59;22.70;99.90
18611;DHT22;9435;52.122;5.502;2023-07-24T12:27:27;22.70;99.90
18611;DHT22;9435;52.122;5.502;2023-07-24T12:29:54;22.80;99.90
18611;DHT22;9435;52.122;5.502;2023-07-24T12:32:21;23.10;99.90
18611;DHT22;9435;52.122;5.502;2023-07-24T12:34:50;23.60;99.90
18611;DHT22;9435;52.122;5.502;2023-07-24T12:37:18;24.10;99.90
18611;DHT22;9435;52.122;5.502;2023-07-24T12:39:45;24.30;99.90
18611;DHT22;9435;52.122;5.502;2023-07-24T12:42:13;24.40;99.90
18611;DHT22;9435;52.122;5.502;2023-07-24T12:44:42;24.50;99.90
18611;DHT22;9435;52.122;5.502;2023-07-24T12:47:09;24.60;99.90
18611;DHT22;9435;52.122;5.502;2023-07-24T12:49:37;25.10;99.90
18611;DHT22;9435;52.122;5.502;2023-07-24T12:52:05;25.40;99.90
18611;DHT22;9435;52.122;5.502;2023-07-24T12:54:33;24.70;99.90
18611;DHT22;9435;52.122;5.502;2023-07-24T12:57:00;24.30;99.90
18611;DHT22;9435;52.122;5.502;2023-07-24T12:59:28;23.90;99.90
18611;DHT22;9435;52.122;5.502;2023-07-24T13:01:57;23.60;99.90
18611;DHT22;9435;52.122;5.502;2023-07-24T13:04:24;23.50;99.90
18611;DHT22;9435;52.122;5.502;2023-07-24T13:06:52;23.30;99.90
18611;DHT22;9435;52.122;5.502;2023-07-24T13:09:19;23.20;99.90
18611;DHT22;9435;52.122;5.502;2023-07-24T13:11:47;23.00;99.90
18611;DHT22;9435;52.122;5.502;2023-07-24T13:14:16;23.10;99.90
18611;DHT22;9435;52.122;5.502;2023-07-24T13:16:44;23.40;99.90
18611;DHT22;9435;52.122;5.502;2023-07-24T13:19:12;23.60;99.90
18611;DHT22;9435;52.122;5.502;2023-07-24T13:21:39;23.50;99.90
18611;DHT22;9435;52.122;5.502;2023-07-24T13:24:08;23.40;99.90
18611;DHT22;9435;52.122;5.502;2023-07-24T13:26:35;23.10;99.90
18611;DHT22;9435;52.122;5.502;2023-07-24T13:29:03;22.90;99.90
18611;DHT22;9435;52.122;5.502;2023-07-24T13:31:31;22.60;99.90
18611;DHT22;9435;52.122;5.502;2023-07-24T13:33:59;22.30;99.90
18611;DHT22;9435;52.122;5.502;2023-07-24T13:36:27;21.90;99.90
18611;DHT22;9435;52.122;5.502;2023-07-24T13:38:54;21.80;99.90
18611;DHT22;9435;52.122;5.502;2023-07-24T13:41:21;21.70;99.90
18611;DHT22;9435;52.122;5.502;2023-07-24T13:43:48;21.60;99.90
18611;DHT22;9435;52.122;5.502;2023-07-24T13:46:16;21.50;99.90
18611;DHT22;9435;52.122;5.502;2023-07-24T13:48:43;21.40;99.90
18611;DHT22;9435;52.122;5.502;2023-07-24T13:51:10;21.20;99.90
18611;DHT22;9435;52.122;5.502;2023-07-24T13:53:39;21.10;99.90
18611;DHT22;9435;52.122;5.502;2023-07-24T13:56:06;21.00;99.90
18611;DHT22;9435;52.122;5.502;2023-07-24T13:58:33;21.10;99.90
18611;DHT22;9435;52.122;5.502;2023-07-24T14:01:00;21.00;99.90
18611;DHT22;9435;52.122;5.502;2023-07-24T14:03:27;20.80;99.90
18611;DHT22;9435;52.122;5.502;2023-07-24T14:05:55;20.80;99.90
18611;DHT22;9435;52.122;5.502;2023-07-24T14:08:23;20.80;99.90
18611;DHT22;9435;52.122;5.502;2023-07-24T14:10:51;20.60;99.90
18611;DHT22;9435;52.122;5.502;2023-07-24T14:13:19;20.50;99.90
18611;DHT22;9435;52.122;5.502;2023-07-24T14:15:46;20.40;99.90
18611;DHT22;9435;52.122;5.502;2023-07-24T14:18:13;20.50;99.90
18611;DHT22;9435;52.122;5.502;2023-07-24T14:20:40;20.50;99.90
18611;DHT22;9435;52.122;5.502;2023-07-24T14:23:07;20.50;99.90
18611;DHT22;9435;52.122;5.502;2023-07-24T14:25:34;20.50;99.90
18611;DHT22;9435;52.122;5.502;2023-07-24T14:28:03;20.50;99.90
18611;DHT22;9435;52.122;5.502;2023-07-24T14:30:30;20.50;99.90
18611;DHT22;9435;52.122;5.502;2023-07-24T14:32:57;20.50;99.90
18611;DHT22;9435;52.122;5.502;2023-07-24T14:35:24;20.60;99.90
18611;DHT22;9435;52.122;5.502;2023-07-24T14:37:51;20.60;99.90
18611;DHT22;9435;52.122;5.502;2023-07-24T14:40:19;20.70;99.90
18611;DHT22;9435;52.122;5.502;2023-07-24T14:42:46;20.60;99.90
18611;DHT22;9435;52.122;5.502;2023-07-24T14:45:14;20.60;99.90
18611;DHT22;9435;52.122;5.502;2023-07-24T14:47:41;20.70;99.90
18611;DHT22;9435;52.122;5.502;2023-07-24T14:50:11;20.70;99.90
18611;DHT22;9435;52.122;5.502;2023-07-24T14:52:38;20.80;99.90
18611;DHT22;9435;52.122;5.502;2023-07-24T14:55:06;20.80;99.90
18611;DHT22;9435;52.122;5.502;2023-07-24T14:57:33;20.70;99.90
18611;DHT22;9435;52.122;5.502;2023-07-24T15:00:00;20.60;99.90
18611;DHT22;9435;52.122;5.502;2023-07-24T15:02:29;20.50;99.90
18611;DHT22;9435;52.122;5.502;2023-07-24T15:04:58;20.70;99.90
18611;DHT22;9435;52.122;5.502;2023-07-24T15:07:25;20.50;99.90
18611;DHT22;9435;52.122;5.502;2023-07-24T15:09:52;20.40;99.90
18611;DHT22;9435;52.122;5.502;2023-07-24T15:12:20;20.40;99.90
18611;DHT22;9435;52.122;5.502;2023-07-24T15:14:47;20.30;99.90
18611;DHT22;9435;52.122;5.502;2023-07-24T15:17:14;20.10;99.90
18611;DHT22;9435;52.122;5.502;2023-07-24T15:19:45;20.00;99.90
18611;DHT22;9435;52.122;5.502;2023-07-24T15:22:12;19.80;99.90
18611;DHT22;9435;52.122;5.502;2023-07-24T15:24:39;19.80;99.90
18611;DHT22;9435;52.122;5.502;2023-07-24T15:27:07;20.00;99.90
18611;DHT22;9435;52.122;5.502;2023-07-24T15:29:34;20.00;99.90
18611;DHT22;9435;52.122;5.502;2023-07-24T15:32:02;20.10;99.90
18611;DHT22;9435;52.122;5.502;2023-07-24T15:34:29;20.00;99.90
18611;DHT22;9435;52.122;5.502;2023-07-24T15:36:57;19.80;99.90
18611;DHT22;9435;52.122;5.502;2023-07-24T15:39:25;19.80;99.90
18611;DHT22;9435;52.122;5.502;2023-07-24T15:41:53;19.90;99.90
18611;DHT22;9435;52.122;5.502;2023-07-24T15:44:20;19.80;99.90
18611;DHT22;9435;52.122;5.502;2023-07-24T15:46:47;19.70;99.90
18611;DHT22;9435;52.122;5.502;2023-07-24T15:49:14;19.60;99.90